Data for 04/24/2008

Time Sea-Level Adjusted Pressure Absolute Pressure Temperature Relative Humidity Dew Point   
(mb) (inHg) (mb) (inHg) (C) (F) (%) (C) (F)
00:05 1012 29.88 841 24.83 1.1 34 164 8.2 46.7
00:10 1011 29.85 841 24.83 0.8 33.5 164 7.9 46.2
00:15 1012 29.88 841 24.83 0.5 32.9 164 7.5 45.6
00:20 1012 29.88 841 24.83 0.4 32.6 164 7.4 45.3
00:25 1011 29.85 841 24.83 0.4 32.6 164 7.4 45.3
00:30 1011 29.85 840 24.81 0.3 32.6 164 7.3 45.2
00:35 1011 29.85 840 24.81 0.3 32.5 164 7.3 45.1
00:40 1011 29.85 840 24.81 0.3 32.5 164 7.3 45.1
00:45 1011 29.85 840 24.81 0.3 32.6 164 7.4 45.3
00:50 1011 29.85 840 24.81 0.4 32.8 164 7.4 45.4
00:55 1011 29.85 840 24.81 0.5 32.9 164 7.5 45.6
01:00 1011 29.85 840 24.81 0.6 33.1 164 7.7 45.8
01:05 1011 29.85 840 24.81 0.7 33.3 164 7.8 46
01:10 1011 29.85 840 24.81 0.8 33.4 164 7.8 46.1
01:15 1011 29.85 840 24.81 0.8 33.5 164 7.9 46.2
01:20 1011 29.85 841 24.83 0.9 33.6 164 7.9 46.3
01:25 1011 29.85 841 24.83 0.9 33.7 164 8 46.3
01:30 1011 29.85 841 24.83 1.2 34.1 164 8.2 46.8
01:35 1011 29.85 840 24.81 1.1 33.9 164 8.1 46.6
01:40 1011 29.85 841 24.83 0.7 33.3 164 7.8 46
01:45 1011 29.85 841 24.83 0.3 32.6 164 7.3 45.2
01:50 1011 29.85 841 24.83 0.1 32.2 164 7.1 44.8
01:55 1011 29.85 841 24.83 0.1 32.2 164 7.1 44.8
02:00 1011 29.85 841 24.83 0.2 32.4 164 7.2 45
02:05 1012 29.88 841 24.83 0.2 32.4 164 7.3 45.1
02:10 1012 29.88 841 24.83 0.3 32.5 164 7.3 45.1
02:15 1012 29.88 841 24.83 0.2 32.3 164 7.2 45
02:20 1012 29.88 841 24.83 0.1 32.2 164 7.1 44.9
02:25 1012 29.88 841 24.83 0.1 32.2 164 7.1 44.9
02:30 1012 29.88 841 24.83 0.1 32.2 164 7.1 44.9
02:35 1012 29.88 841 24.83 0.2 32.3 164 7.2 44.9
02:40 1012 29.88 841 24.83 0.2 32.4 164 7.2 45
02:45 1012 29.88 841 24.83 0.3 32.5 164 7.3 45.1
02:50 1012 29.88 841 24.83 0.3 32.5 164 7.3 45.1
02:55 1012 29.88 841 24.83 0.3 32.5 164 7.3 45.2
03:00 1012 29.88 841 24.83 0.2 32.4 164 7.2 45
03:05 1012 29.88 841 24.83 0.2 32.3 164 7.2 45
03:10 1012 29.88 841 24.83 0.2 32.3 164 7.2 44.9
03:15 1012 29.88 841 24.83 0.1 32.1 164 7.1 44.8
03:20 1012 29.88 841 24.83 0.1 32.1 164 7.1 44.8
03:25 1012 29.88 841 24.83 0.1 32.1 164 7.1 44.7
03:30 1012 29.88 841 24.83 -0.2 31.6 164 6.8 44.2
03:35 1012 29.88 841 24.83 -0.4 31.2 164 6.6 43.8
03:40 1012 29.88 841 24.83 -0.5 31.1 164 6.5 43.7
03:45 1012 29.88 841 24.83 -0.5 31.1 164 6.5 43.7
03:50 1012 29.88 841 24.83 -0.6 31 164 6.4 43.6
03:55 1012 29.88 841 24.83 -0.7 30.7 164 6.3 43.3
04:00 1012 29.88 841 24.83 -0.8 30.6 164 6.2 43.2
04:05 1012 29.88 841 24.83 -0.8 30.6 164 6.2 43.2
04:10 1012 29.88 841 24.83 -0.8 30.6 164 6.2 43.2
04:15 1012 29.88 841 24.83 -0.8 30.6 164 6.2 43.1
04:20 1012 29.88 841 24.83 -0.8 30.6 164 6.2 43.1
04:25 1012 29.88 841 24.83 -0.8 30.5 164 6.1 43
04:30 1012 29.88 842 24.86 -0.9 30.5 164 6.1 43
04:35 1012 29.88 842 24.86 -1 30.3 164 6 42.8
04:40 1012 29.88 842 24.86 -1.1 30.1 164 5.9 42.6
04:45 1012 29.88 841 24.83 -1 30.1 164 5.9 42.7
04:50 1012 29.88 841 24.83 -1.1 30 164 5.9 42.6
04:55 1012 29.88 841 24.83 -1 30.1 164 5.9 42.7
05:00 1012 29.88 842 24.86 -0.9 30.3 164 6 42.9
05:05 1012 29.88 842 24.86 -0.9 30.4 164 6.1 42.9
05:10 1013 29.91 842 24.86 -0.9 30.5 164 6.1 43
05:15 1013 29.91 842 24.86 -0.8 30.5 164 6.1 43
05:20 1013 29.91 842 24.86 -0.8 30.5 164 6.1 43
05:25 1013 29.91 842 24.86 -0.9 30.4 164 6.1 42.9
05:30 1013 29.91 842 24.86 -0.9 30.3 164 6 42.9
05:35 1013 29.91 842 24.86 -0.9 30.5 164 6.1 43
05:40 1013 29.91 842 24.86 -0.8 30.6 164 6.2 43.2
05:45 1013 29.91 842 24.86 -0.7 30.8 164 6.3 43.4
05:50 1013 29.91 842 24.86 -0.5 31 164 6.5 43.6
05:55 1013 29.91 842 24.86 -0.4 31.2 164 6.6 43.8
06:00 1013 29.91 842 24.86 -0.4 31.3 164 6.6 43.9
06:05 1013 29.91 842 24.86 -0.4 31.3 164 6.6 43.9
06:10 1013 29.91 842 24.86 -0.3 31.4 164 6.7 44
06:15 1013 29.91 842 24.86 -0.4 31.2 164 6.6 43.8
06:20 1013 29.91 842 24.86 -0.5 31.1 164 6.5 43.7
06:25 1013 29.91 842 24.86 -0.6 30.9 164 6.4 43.5
06:30 1013 29.91 842 24.86 -0.7 30.7 164 6.3 43.3
06:35 1013 29.91 842 24.86 -0.7 30.7 164 6.2 43.2
06:40 1013 29.91 842 24.86 -0.9 30.5 164 6.1 43
06:45 1013 29.91 842 24.86 -1 30.3 164 6 42.8
06:50 1013 29.91 842 24.86 -1 30.2 164 6 42.7
06:55 1013 29.91 842 24.86 -1.1 30.1 164 5.9 42.6
07:00 1013 29.91 842 24.86 -1 30.1 164 5.9 42.7
07:05 1013 29.91 843 24.89 -1 30.1 164 5.9 42.7
07:10 1013 29.91 843 24.89 -1 30.2 164 6 42.8
07:15 1013 29.91 843 24.89 -1 30.2 164 6 42.8
07:20 1013 29.91 843 24.89 -1 30.2 164 6 42.8
07:25 1014 29.94 843 24.89 -0.9 30.3 164 6 42.8
07:30 1014 29.94 843 24.89 -0.9 30.4 164 6.1 43
07:35 1014 29.94 843 24.89 -0.8 30.5 164 6.1 43.1
07:40 1014 29.94 843 24.89 -0.8 30.6 164 6.2 43.1
07:45 1014 29.94 843 24.89 -0.8 30.6 164 6.2 43.1
07:50 1014 29.94 843 24.89 -0.8 30.6 164 6.2 43.2
07:55 1014 29.94 843 24.89 -0.7 30.7 164 6.3 43.3
08:00 1014 29.94 843 24.89 -0.7 30.7 164 6.2 43.2
08:05 1014 29.94 843 24.89 -1 30.3 164 6 42.8
08:10 1014 29.94 843 24.89 -0.9 30.4 164 6.1 42.9
08:15 1014 29.94 843 24.89 -0.8 30.5 164 6.1 43.1
08:20 1014 29.94 843 24.89 -0.9 30.4 164 6.1 43
08:25 1014 29.94 843 24.89 -1 30.2 164 6 42.8
08:30 1014 29.94 844 24.92 -0.8 30.6 164 6.2 43.1
08:35 1014 29.94 844 24.92 -0.7 30.8 164 6.3 43.4
08:40 1014 29.94 843 24.89 -0.6 30.9 164 6.4 43.5
08:45 1014 29.94 844 24.92 -0.5 31.2 164 6.5 43.8
08:50 1015 29.97 844 24.92 -0.3 31.4 164 6.7 44
08:55 1015 29.97 844 24.92 -0.3 31.4 164 6.7 44
09:00 1015 29.97 844 24.92 -0.4 31.3 164 6.6 43.9
09:05 1015 29.97 844 24.92 -0.3 31.4 164 6.7 44
09:10 1015 29.97 844 24.92 -0.4 31.3 164 6.6 43.9
09:15 1015 29.97 844 24.92 -0.4 31.3 164 6.6 43.9
09:20 1015 29.97 844 24.92 -0.4 31.2 164 6.6 43.8
09:25 1015 29.97 844 24.92 -0.5 31.1 164 6.5 43.7
09:30 1015 29.97 844 24.92 -0.5 31.2 164 6.5 43.8
09:35 1015 29.97 844 24.92 -0.4 31.3 164 6.6 43.9
09:40 1015 29.97 844 24.92 -0.4 31.2 164 6.6 43.8
09:45 1015 29.97 844 24.92 -0.3 31.5 164 6.7 44.1
09:50 1015 29.97 844 24.92 -0.3 31.5 164 6.7 44.1
09:55 1015 29.97 844 24.92 -0.3 31.4 164 6.7 44
10:00 1015 29.97 844 24.92 -0.2 31.7 164 6.8 44.3
10:05 1015 29.97 844 24.92 -0.1 31.8 164 6.9 44.5
10:10 1015 29.97 844 24.92 -0.2 31.6 164 6.8 44.2
10:15 1015 29.97 844 24.92 -0.2 31.7 164 6.8 44.2
10:20 1015 29.97 845 24.95 -0.2 31.6 164 6.8 44.2
10:25 1015 29.97 845 24.95 -0.1 31.7 164 6.9 44.4
10:30 1016 30 845 24.95 -0.1 31.8 164 6.9 44.4
10:35 1016 30 845 24.95 -0.1 31.9 164 6.9 44.5
10:40 1016 30 845 24.95 -0 31.9 164 7 44.5
10:45 1016 30 845 24.95 -0.1 31.8 164 6.9 44.4
10:50 1016 30 845 24.95 -0 31.9 164 7 44.6
10:55 1016 30 845 24.95 -0 31.9 164 7 44.5
11:00 1016 30 845 24.95 -0.1 31.9 164 6.9 44.5
11:05 1016 30 845 24.95 -0.1 31.8 164 6.9 44.4
11:10 1016 30 845 24.95 -0.1 31.8 164 6.9 44.4
11:15 1016 30 845 24.95 0 32 164 7 44.6
11:20 1016 30 845 24.95 0.1 32.2 164 7.1 44.8
11:25 1016 30 845 24.95 0.2 32.4 164 7.2 45
11:30 1016 30 845 24.95 0.3 32.5 164 7.3 45.2
11:35 1016 30 845 24.95 0.4 32.6 164 7.4 45.3
11:40 1016 30 845 24.95 0.5 32.9 164 7.6 45.6
11:45 1016 30 846 24.98 0.6 33.1 164 7.7 45.8
11:50 1016 30 846 24.98 0.6 33 164 7.6 45.7
11:55 1017 30.03 846 24.98 0.5 33 164 7.6 45.6
12:00 1017 30.03 846 24.98 0.6 33.1 164 7.6 45.7
12:05 1017 30.03 846 24.98 0.6 33.1 164 7.7 45.8
12:10 1017 30.03 846 24.98 0.7 33.2 164 7.7 45.9
12:15 1017 30.03 846 24.98 0.7 33.3 164 7.8 46
12:20 1017 30.03 846 24.98 0.8 33.5 164 7.9 46.2
12:25 1017 30.03 846 24.98 0.9 33.6 164 8 46.3
12:30 1017 30.03 846 24.98 1 33.8 164 8 46.5
12:35 1017 30.03 846 24.98 0.9 33.6 164 8 46.4
12:40 1017 30.03 846 24.98 0.9 33.6 164 8 46.3
12:45 1017 30.03 846 24.98 1.1 33.9 164 8.1 46.6
12:50 1017 30.03 846 24.98 1.2 34.1 164 8.2 46.8
12:55 1017 30.03 846 24.98 1.2 34.1 164 8.2 46.8
13:00 1017 30.03 846 24.98 1 33.8 164 8.1 46.5
13:05 1017 30.03 846 24.98 1 33.8 164 8 46.5
13:10 1017 30.03 846 24.98 0.9 33.6 164 7.9 46.3
13:15 1017 30.03 846 24.98 1.1 33.9 164 8.1 46.6
13:20 1017 30.03 846 24.98 1.1 34 164 8.2 46.7
13:25 1017 30.03 846 24.98 1.1 34 164 8.2 46.7
13:30 1017 30.03 846 24.98 1 33.9 164 8.1 46.6
13:35 1017 30.03 846 24.98 1 33.8 164 8 46.5
13:40 1017 30.03 846 24.98 1.2 34.2 164 8.3 46.9
13:45 1017 30.03 846 24.98 1.2 34.2 164 8.3 47
13:50 1017 30.03 846 24.98 1.2 34.1 164 8.2 46.8
13:55 1017 30.03 846 24.98 1 33.9 164 8.1 46.6
14:00 1017 30.03 846 24.98 1.3 34.3 164 8.3 47
14:05 1017 30.03 847 25.01 1.4 34.5 164 8.5 47.2
14:10 1017 30.03 847 25.01 1.4 34.6 164 8.5 47.3
14:15 1017 30.03 847 25.01 1.6 34.8 164 8.6 47.6
14:20 1017 30.03 847 25.01 1.9 35.3 81 -1 30.2
14:25 1017 30.03 847 25.01 2.1 35.7 78 -1.3 29.6
14:30 1017 30.03 847 25.01 2.2 36 76 -1.6 29.2
14:35 1017 30.03 847 25.01 2.3 36.1 74 -1.8 28.8
14:40 1018 30.06 847 25.01 2.6 36.7 73 -1.7 29
14:45 1018 30.06 847 25.01 3.1 37.5 71 -1.8 28.8
14:50 1018 30.06 847 25.01 3.2 37.7 70 -1.7 28.9
14:55 1018 30.06 847 25.01 3.3 37.9 70 -1.6 29.1
15:00 1018 30.06 847 25.01 3.9 39.1 66 -1.8 28.8
15:05 1018 30.06 847 25.01 4.1 39.4 64 -2.1 28.3
15:10 1018 30.06 847 25.01 3.9 39 62 -2.8 27
15:15 1018 30.06 847 25.01 3.7 38.7 61 -3.1 26.4
15:20 1018 30.06 847 25.01 3.8 38.9 59 -3.5 25.6
15:25 1018 30.06 847 25.01 4.2 39.5 55 -4 24.8
15:30 1018 30.06 847 25.01 3.8 38.8 56 -4.2 24.4
15:35 1018 30.06 847 25.01 3.1 37.6 56 -4.8 23.4
15:40 1018 30.06 847 25.01 3.1 37.5 56 -4.9 23.3
15:45 1018 30.06 847 25.01 3.1 37.6 56 -4.8 23.4
15:50 1018 30.06 847 25.01 3.5 38.3 56 -4.6 23.8
15:55 1018 30.06 847 25.01 4.2 39.6 55 -4.1 24.6
16:00 1018 30.06 847 25.01 4.4 39.9 53 -4.4 24.1
16:05 1018 30.06 847 25.01 4.1 39.3 54 -4.5 23.9
16:10 1018 30.06 847 25.01 4.1 39.5 53 -4.5 23.8
16:15 1018 30.06 847 25.01 4.2 39.6 54 -4.4 24.1
16:20 1018 30.06 847 25.01 4.6 40.2 53 -4.3 24.3
16:25 1018 30.06 847 25.01 4.4 39.9 53 -4.3 24.2
16:30 1018 30.06 847 25.01 4.3 39.7 54 -4.2 24.5
16:35 1018 30.06 847 25.01 4.7 40.5 53 -4.1 24.6
16:40 1018 30.06 847 25.01 4.5 40.2 52 -4.4 24.1
16:45 1018 30.06 847 25.01 5 40.9 52 -4.1 24.7
16:50 1018 30.06 847 25.01 5.9 42.6 50 -3.8 25.1
16:55 1018 30.06 847 25.01 7 44.5 48 -3.4 25.9
17:00 1018 30.06 847 25.01 7.3 45.1 49 -2.8 26.9
17:05 1018 30.06 847 25.01 6.3 43.4 50 -3.4 25.9
17:10 1018 30.06 847 25.01 6.1 43 50 -3.5 25.7
17:15 1018 30.06 847 25.01 5.5 42 52 -3.5 25.7
17:20 1018 30.06 847 25.01 5.5 41.8 52 -3.5 25.6
17:25 1018 30.06 847 25.01 5.6 42.2 51 -3.8 25.2
17:30 1018 30.06 847 25.01 5.7 42.3 49 -4.1 24.7
17:35 1018 30.06 847 25.01 5 41 52 -3.9 24.9
17:40 1018 30.06 848 25.04 5.5 41.9 50 -4 24.8
17:45 1018 30.06 848 25.04 5.6 42 50 -3.9 24.9
17:50 1018 30.06 848 25.04 5.7 42.2 50 -3.9 25
17:55 1018 30.06 848 25.04 5.7 42.2 51 -3.7 25.3
18:00 1018 30.06 847 25.01 5.4 41.7 51 -3.8 25.1
18:05 1018 30.06 847 25.01 4.9 40.8 54 -3.7 25.3
18:10 1018 30.06 847 25.01 4.5 40 53 -4.3 24.3
18:15 1018 30.06 847 25.01 4.5 40.1 54 -4.1 24.6
18:20 1018 30.06 847 25.01 4.5 40.2 53 -4.2 24.5
18:25 1018 30.06 847 25.01 4.1 39.4 56 -4 24.8
18:30 1018 30.06 847 25.01 4.1 39.4 55 -4 24.8
18:35 1018 30.06 847 25.01 4.1 39.3 54 -4.4 24.1
18:40 1018 30.06 847 25.01 3.7 38.6 56 -4.4 24.1
18:45 1018 30.06 848 25.04 3.6 38.4 55 -4.6 23.8
18:50 1018 30.06 848 25.04 3.6 38.5 56 -4.4 24.1
18:55 1018 30.06 848 25.04 3.4 38.2 57 -4.4 24.2
19:00 1018 30.06 848 25.04 3.3 38 56 -4.6 23.7
19:05 1018 30.06 848 25.04 3.4 38.1 58 -4.2 24.4
19:10 1018 30.06 848 25.04 3.4 38.2 58 -4.1 24.6
19:15 1018 30.06 848 25.04 3.3 37.9 58 -4.1 24.6
19:20 1019 30.09 848 25.04 3.3 38 59 -4 24.8
19:25 1019 30.09 848 25.04 3.2 37.7 59 -4 24.8
19:30 1019 30.09 848 25.04 3.1 37.6 60 -4 24.7
19:35 1019 30.09 848 25.04 3 37.4 59 -4.3 24.3
19:40 1019 30.09 848 25.04 2.8 37 61 -4.1 24.6
19:45 1019 30.09 848 25.04 2.6 36.8 61 -4.1 24.6
19:50 1019 30.09 848 25.04 2.4 36.4 63 -4 24.8
19:55 1019 30.09 848 25.04 2.4 36.3 63 -3.9 25
20:00 1019 30.09 848 25.04 2.3 36.2 63 -3.9 24.9
20:05 1019 30.09 848 25.04 1.9 35.4 66 -3.8 25.1
20:10 1019 30.09 848 25.04 1.7 35.1 67 -3.8 25.2
20:15 1019 30.09 848 25.04 1.7 35 68 -3.7 25.4
20:20 1019 30.09 848 25.04 1.4 34.6 69 -3.7 25.3
20:25 1019 30.09 848 25.04 1.2 34.2 69 -3.8 25.1
20:30 1019 30.09 848 25.04 1.1 34.1 72 -3.4 25.9
20:35 1019 30.09 848 25.04 1.1 34 73 -3.2 26.2
20:40 1019 30.09 848 25.04 1.3 34.3 74 -2.8 27
20:45 1019 30.09 848 25.04 1.3 34.3 75 -2.6 27.3
20:50 1019 30.09 848 25.04 1 33.9 78 -2.4 27.6
20:55 1019 30.09 848 25.04 0.7 33.3 79 -2.4 27.6
21:00 1019 30.09 848 25.04 0.6 33 83 -2 28.4
21:05 1019 30.09 848 25.04 0.3 32.6 85 -1.9 28.6
21:10 1019 30.09 848 25.04 0.2 32.4 87 -1.7 28.9
21:15 1019 30.09 848 25.04 0.4 32.6 86 -1.7 28.9
21:20 1019 30.09 849 25.07 0.4 32.7 86 -1.7 28.9
21:25 1020 30.12 849 25.07 0.7 33.2 85 -1.5 29.3
21:30 1020 30.12 849 25.07 1 33.7 84 -1.4 29.5
21:35 1020 30.12 849 25.07 0.9 33.7 85 -1.3 29.7
21:40 1020 30.12 849 25.07 0.9 33.7 86 -1.1 29.9
21:45 1020 30.12 849 25.07 0.8 33.5 86 -1.2 29.9
21:50 1020 30.12 849 25.07 0.7 33.2 87 -1.2 29.9
21:55 1020 30.12 849 25.07 0.5 33 88 -1.2 29.8
22:00 1020 30.12 849 25.07 0.3 32.5 90 -1.2 29.9
22:05 1020 30.12 849 25.07 -0 31.9 91 -1.3 29.7
22:10 1020 30.12 849 25.07 -0.2 31.7 92 -1.3 29.6
22:15 1020 30.12 849 25.07 -0.2 31.6 92 -1.3 29.6
22:20 1020 30.12 849 25.07 -0.2 31.6 92 -1.3 29.6
22:25 1020 30.12 849 25.07 -0.2 31.6 93 -1.3 29.7
22:30 1020 30.12 849 25.07 -0.4 31.4 93 -1.4 29.5
22:35 1020 30.12 849 25.07 -0.5 31.2 93 -1.4 29.5
22:40 1020 30.12 849 25.07 -0.4 31.2 93 -1.4 29.5
22:45 1020 30.12 849 25.07 -0.4 31.3 93 -1.4 29.5
22:50 1020 30.12 849 25.07 -0.4 31.3 93 -1.4 29.5
22:55 1020 30.12 849 25.07 -0.4 31.3 93 -1.4 29.5
23:00 1020 30.12 849 25.07 -0.5 31.1 93 -1.5 29.3
23:05 1020 30.12 849 25.07 -0.6 30.9 94 -1.5 29.3
23:10 1020 30.12 849 25.07 -0.7 30.7 94 -1.6 29.1
23:15 1020 30.12 849 25.07 -0.9 30.4 94 -1.7 28.9
23:20 1020 30.12 849 25.07 -1 30.2 95 -1.7 28.9
23:25 1020 30.12 849 25.07 -1 30.1 95 -1.7 28.9
23:30 1020 30.12 849 25.07 -1 30.1 95 -1.7 28.9
23:35 1020 30.12 849 25.07 -1 30.2 95 -1.7 29
23:40 1020 30.12 849 25.07 -0.9 30.4 95 -1.6 29.2
23:45 1020 30.12 849 25.07 -0.8 30.6 95 -1.5 29.2
23:50 1020 30.12 849 25.07 -0.8 30.6 94 -1.6 29.1
23:55 1020 30.12 849 25.07 -0.8 30.5 94 -1.7 29
24:00 1020 30.12 849 25.07 -0.9 30.4 94 -1.7 28.9